createdAt,value
2019-05-21T00:02:18.997Z,11.70
2019-05-21T00:04:51.799Z,10.05
2019-05-21T00:07:23.584Z,26.93
2019-05-21T00:10:00.581Z,6.97
2019-05-21T00:12:33.503Z,10.43
2019-05-21T00:15:06.896Z,6.65
2019-05-21T00:17:38.144Z,11.68
2019-05-21T00:20:10.236Z,10.70
2019-05-21T00:22:41.949Z,9.03
2019-05-21T00:25:16.929Z,4.95
2019-05-21T00:27:46.584Z,9.85
2019-05-21T00:30:54.722Z,7.03
2019-05-21T00:34:02.928Z,9.88
2019-05-21T00:40:02.080Z,6.80
2019-05-21T00:42:38.242Z,11.38
2019-05-21T00:45:09.991Z,14.00
2019-05-21T00:47:41.422Z,13.32
2019-05-21T00:50:13.075Z,13.45
2019-05-21T00:52:44.721Z,18.50
2019-05-21T00:55:16.919Z,18.90
2019-05-21T00:57:48.105Z,17.98
2019-05-21T01:00:19.691Z,19.00
2019-05-21T01:02:50.937Z,9.03
2019-05-21T01:05:22.261Z,9.58
2019-05-21T01:07:55.429Z,10.25
2019-05-21T01:10:27.020Z,19.75
2019-05-21T01:12:58.380Z,16.97
2019-05-21T01:15:32.193Z,12.88
2019-05-21T01:18:03.738Z,20.72
2019-05-21T01:20:35.395Z,22.22
2019-05-21T01:23:06.745Z,20.17
2019-05-21T01:25:38.187Z,13.60
2019-05-21T01:28:10.574Z,19.52
2019-05-21T01:30:42.607Z,15.72
2019-05-21T01:33:13.806Z,18.20
2019-05-21T01:35:45.424Z,12.40
2019-05-21T01:38:16.771Z,6.72
2019-05-21T01:40:48.510Z,6.50
2019-05-21T01:43:19.979Z,9.93
2019-05-21T01:45:51.320Z,18.05
2019-05-21T01:48:24.256Z,13.13
2019-05-21T01:50:55.968Z,18.92
2019-05-21T01:53:27.520Z,21.95
2019-05-21T01:55:58.868Z,37.30
2019-05-21T01:58:30.101Z,37.65
2019-05-21T02:01:01.636Z,46.73
2019-05-21T02:03:34.505Z,41.30
2019-05-21T02:06:07.797Z,57.25
2019-05-21T02:08:39.389Z,56.30
2019-05-21T02:11:10.755Z,43.52
2019-05-21T02:13:42.360Z,49.60
2019-05-21T02:16:14.666Z,56.02
2019-05-21T02:18:47.367Z,83.35
2019-05-21T02:21:18.802Z,63.42
2019-05-21T02:23:50.456Z,86.05
2019-05-21T02:26:21.644Z,95.70
2019-05-21T02:28:53.360Z,88.70
2019-05-21T02:31:24.757Z,43.08
2019-05-21T02:33:56.367Z,39.78
2019-05-21T02:36:28.980Z,35.48
2019-05-21T02:39:00.477Z,39.27
2019-05-21T02:41:32.769Z,34.67
2019-05-21T02:44:04.120Z,33.30
2019-05-21T02:46:35.455Z,26.48
2019-05-21T02:49:08.213Z,20.72
2019-05-21T02:51:39.377Z,18.07
2019-05-21T02:54:10.524Z,13.08
2019-05-21T02:56:41.880Z,16.25
2019-05-21T02:59:13.501Z,17.73
2019-05-21T03:01:51.369Z,8.23
2019-05-21T03:04:24.289Z,6.83
2019-05-21T03:06:57.285Z,8.40
2019-05-21T03:09:28.646Z,11.00
2019-05-21T03:12:00.246Z,7.87
2019-05-21T03:14:31.545Z,10.40
2019-05-21T03:17:02.794Z,5.80
2019-05-21T03:19:33.905Z,9.50
2019-05-21T03:22:05.159Z,8.75
2019-05-21T03:24:36.191Z,10.60
2019-05-21T03:27:07.777Z,7.78
2019-05-21T03:29:40.146Z,9.25
2019-05-21T03:32:11.801Z,10.98
2019-05-21T03:34:43.243Z,9.15
2019-05-21T03:37:15.627Z,16.00
2019-05-21T03:39:47.082Z,14.07
2019-05-21T03:42:20.371Z,11.22
2019-05-21T03:45:00.015Z,5.83
2019-05-21T03:47:26.545Z,20.65
2019-05-21T03:49:59.738Z,6.10
2019-05-21T03:52:31.088Z,8.28
2019-05-21T03:55:03.270Z,7.60
2019-05-21T03:57:35.420Z,14.38
2019-05-21T04:00:08.618Z,12.25
2019-05-21T04:02:40.343Z,7.92
2019-05-21T04:05:14.983Z,15.48
2019-05-21T04:07:46.415Z,15.93
2019-05-21T04:10:17.997Z,9.68
2019-05-21T04:13:08.673Z,26.70
2019-05-21T04:15:44.836Z,17.73
2019-05-21T04:18:22.339Z,6.45
2019-05-21T04:20:54.403Z,11.88
2019-05-21T04:23:25.751Z,11.97
2019-05-21T04:25:57.601Z,11.60
2019-05-21T04:28:29.276Z,13.78
2019-05-21T04:31:00.912Z,16.07
2019-05-21T04:33:33.413Z,10.98
2019-05-21T04:36:04.738Z,13.95
2019-05-21T04:38:36.207Z,15.78
2019-05-21T04:41:07.842Z,15.25
2019-05-21T04:43:41.868Z,9.53
2019-05-21T04:46:13.434Z,21.07
2019-05-21T04:48:45.284Z,16.62
2019-05-21T04:51:16.423Z,12.73
2019-05-21T04:53:48.173Z,11.12
2019-05-21T04:56:19.734Z,17.50
2019-05-21T04:58:51.184Z,20.17
2019-05-21T05:01:22.737Z,20.90
2019-05-21T05:03:54.274Z,17.80
2019-05-21T05:06:25.744Z,21.07
2019-05-21T05:08:59.050Z,15.80
2019-05-21T05:11:30.250Z,9.90
2019-05-21T05:14:03.208Z,23.45
2019-05-21T05:16:34.694Z,17.95
2019-05-21T05:19:08.134Z,16.35
2019-05-21T05:21:39.360Z,30.45
2019-05-21T05:24:11.836Z,19.52
2019-05-21T05:26:43.116Z,18.02
2019-05-21T05:29:14.534Z,21.15
2019-05-21T05:31:46.085Z,23.70
2019-05-21T05:34:19.632Z,33.65
2019-05-21T05:36:51.038Z,21.50
2019-05-21T05:39:23.081Z,20.60
2019-05-21T05:41:55.026Z,17.85
2019-05-21T05:44:27.329Z,23.92
2019-05-21T05:46:58.678Z,14.98
2019-05-21T05:49:31.867Z,19.42
2019-05-21T05:52:03.322Z,15.98
2019-05-21T05:54:34.774Z,22.60
2019-05-21T05:57:07.137Z,21.68
2019-05-21T05:59:38.803Z,21.50
2019-05-21T06:02:10.179Z,16.82
2019-05-21T06:04:42.670Z,30.88
2019-05-21T06:07:14.146Z,17.73
2019-05-21T06:09:45.730Z,20.17
2019-05-21T06:12:17.264Z,17.65
2019-05-21T06:14:48.627Z,24.25
2019-05-21T06:17:20.285Z,12.82
2019-05-21T06:19:51.427Z,11.18
2019-05-21T06:22:23.250Z,14.43
2019-05-21T06:24:55.746Z,13.95
2019-05-21T06:27:27.305Z,19.82
2019-05-21T06:29:58.861Z,5.22
2019-05-21T06:32:30.831Z,26.45
2019-05-21T06:35:04.615Z,13.98
2019-05-21T06:37:35.816Z,15.35
2019-05-21T06:40:07.327Z,20.15
2019-05-21T06:42:38.681Z,16.60
2019-05-21T06:45:10.311Z,10.35
2019-05-21T06:47:41.577Z,12.25
2019-05-21T06:50:12.912Z,13.45
2019-05-21T06:52:44.667Z,14.68
2019-05-21T06:55:16.737Z,18.25
2019-05-21T06:57:51.631Z,12.43
2019-05-21T07:00:23.431Z,28.85
2019-05-21T07:02:54.784Z,21.35
2019-05-21T07:05:26.433Z,18.42
2019-05-21T07:07:57.995Z,11.75
2019-05-21T07:10:29.644Z,17.02
2019-05-21T07:13:01.204Z,53.90
2019-05-21T07:15:34.078Z,14.25
2019-05-21T07:18:08.149Z,11.88
2019-05-21T07:20:39.349Z,20.72
2019-05-21T07:23:10.992Z,21.07
2019-05-21T07:25:42.648Z,22.73
2019-05-21T07:28:14.096Z,20.12
2019-05-21T07:30:45.756Z,32.48
2019-05-21T07:33:18.005Z,30.68
2019-05-21T07:35:49.449Z,19.70
2019-05-21T07:38:20.925Z,28.60
2019-05-21T07:40:52.351Z,19.57
2019-05-21T07:43:25.638Z,14.50
2019-05-21T07:45:57.247Z,26.57
2019-05-21T07:48:28.883Z,28.07
2019-05-21T07:51:00.661Z,42.45
2019-05-21T07:53:34.099Z,23.85
2019-05-21T07:56:06.184Z,26.30
2019-05-21T07:58:44.896Z,20.65
2019-05-21T08:01:16.567Z,19.95
2019-05-21T08:03:48.113Z,17.42
2019-05-21T08:06:21.295Z,24.63
2019-05-21T08:09:09.652Z,21.45
2019-05-21T08:11:26.165Z,16.07
2019-05-21T08:13:57.916Z,18.55
2019-05-21T08:16:29.347Z,16.55
2019-05-21T08:19:00.824Z,12.05
2019-05-21T08:21:32.213Z,18.00
2019-05-21T08:24:05.490Z,18.37
2019-05-21T08:26:37.217Z,42.30
2019-05-21T08:29:14.911Z,27.40
2019-05-21T08:31:47.386Z,23.07
2019-05-21T08:34:19.132Z,15.60
2019-05-21T08:36:51.725Z,19.82
2019-05-21T08:39:28.764Z,21.52
2019-05-21T08:41:57.455Z,24.82
2019-05-21T08:44:29.373Z,28.20
2019-05-21T08:47:08.070Z,17.55
2019-05-21T08:49:44.100Z,32.25
2019-05-21T08:52:25.699Z,36.00
2019-05-21T08:54:56.994Z,48.58
2019-05-21T08:57:29.133Z,30.60
2019-05-21T09:00:01.362Z,20.95
2019-05-21T09:02:35.712Z,18.17
2019-05-21T09:05:07.482Z,32.90
2019-05-21T09:07:39.931Z,24.70
2019-05-21T09:10:11.196Z,27.15
2019-05-21T09:12:42.470Z,29.90
2019-05-21T09:15:15.619Z,28.17
2019-05-21T09:17:47.268Z,24.30
2019-05-21T09:20:19.045Z,34.63
2019-05-21T09:22:50.481Z,26.60
2019-05-21T09:25:22.023Z,42.27
2019-05-21T09:27:53.400Z,28.17
2019-05-21T09:30:26.062Z,43.33
2019-05-21T09:32:57.429Z,40.30
2019-05-21T09:35:28.752Z,38.40
2019-05-21T09:38:00.119Z,23.40
2019-05-21T09:40:31.554Z,28.90
2019-05-21T09:43:02.918Z,53.83
2019-05-21T09:45:34.588Z,33.18
2019-05-21T09:48:07.856Z,38.65
2019-05-21T09:50:40.650Z,54.45
2019-05-21T09:53:12.132Z,58.87
2019-05-21T09:55:43.735Z,49.38
2019-05-21T09:58:17.457Z,40.90
2019-05-21T10:00:50.457Z,26.75
2019-05-21T10:03:26.692Z,35.58
2019-05-21T10:05:58.171Z,38.48
2019-05-21T10:08:29.596Z,28.95
2019-05-21T10:11:01.073Z,29.82
2019-05-21T10:13:32.311Z,55.00
2019-05-21T10:16:05.638Z,56.48
2019-05-21T10:18:37.239Z,70.78
2019-05-21T10:21:09.827Z,66.75
2019-05-21T10:23:41.280Z,50.55
2019-05-21T10:26:12.735Z,41.13
2019-05-21T10:28:44.279Z,181.28
2019-05-21T10:31:15.937Z,76.97
2019-05-21T10:33:47.533Z,74.30
2019-05-21T10:36:19.460Z,50.92
2019-05-21T10:38:50.806Z,48.30
2019-05-21T10:41:22.234Z,47.10
2019-05-21T10:43:53.903Z,37.48
2019-05-21T10:46:26.573Z,30.10
2019-05-21T10:48:58.163Z,28.05
2019-05-21T10:51:29.590Z,38.55
2019-05-21T10:54:01.349Z,38.75
2019-05-21T10:56:46.861Z,38.63
2019-05-21T10:59:05.871Z,44.03
2019-05-21T11:01:54.847Z,24.98
2019-05-21T11:04:46.361Z,26.35
2019-05-21T11:07:18.744Z,51.35
2019-05-21T11:09:50.195Z,29.23
2019-05-21T11:12:21.858Z,42.73
2019-05-21T11:14:54.801Z,31.85
2019-05-21T11:17:26.392Z,40.60
2019-05-21T11:19:58.009Z,31.37
2019-05-21T11:22:29.784Z,37.80
2019-05-21T11:25:01.256Z,33.42
2019-05-21T11:27:32.574Z,24.77
2019-05-21T11:30:08.801Z,32.95
2019-05-21T11:32:40.305Z,31.00
2019-05-21T11:35:11.498Z,22.25
2019-05-21T11:37:43.004Z,22.98
2019-05-21T11:40:14.175Z,34.65
2019-05-21T11:42:45.683Z,19.05
2019-05-21T11:45:30.955Z,17.00
2019-05-21T11:47:50.215Z,21.70
2019-05-21T11:50:24.266Z,27.25
2019-05-21T11:52:55.600Z,15.90
2019-05-21T11:55:27.455Z,8.30
2019-05-21T11:57:59.112Z,37.55
2019-05-21T12:00:30.672Z,47.45
2019-05-21T12:03:02.032Z,25.90
2019-05-21T12:05:33.241Z,22.27
2019-05-21T12:08:05.911Z,22.85
2019-05-21T12:10:37.184Z,16.25
2019-05-21T12:13:09.718Z,17.77
2019-05-21T12:15:44.076Z,33.90
2019-05-21T12:18:15.321Z,18.52
2019-05-21T12:20:47.870Z,57.62
2019-05-21T12:23:19.473Z,39.60
2019-05-21T12:25:52.352Z,8.33
2019-05-21T12:28:23.991Z,42.33
2019-05-21T12:30:56.330Z,28.73
2019-05-21T12:33:27.804Z,14.45
2019-05-21T12:35:59.368Z,20.37
2019-05-21T12:38:30.820Z,15.40
2019-05-21T12:41:04.297Z,19.10
2019-05-21T12:43:36.523Z,12.18
2019-05-21T12:46:08.110Z,11.15
2019-05-21T12:48:39.734Z,22.62
2019-05-21T12:51:12.677Z,16.57
2019-05-21T12:53:44.216Z,11.20
2019-05-21T12:56:15.582Z,22.25
2019-05-21T12:58:48.669Z,20.65
2019-05-21T13:01:19.993Z,23.02
2019-05-21T13:03:54.813Z,59.45
2019-05-21T13:06:24.965Z,26.73
2019-05-21T13:08:57.418Z,14.33
2019-05-21T13:11:30.019Z,14.60
2019-05-21T13:14:03.216Z,9.85
2019-05-21T13:16:35.168Z,22.22
2019-05-21T13:19:11.003Z,16.02
2019-05-21T13:21:40.538Z,13.22
2019-05-21T13:24:12.375Z,51.45
2019-05-21T13:26:44.766Z,23.25
2019-05-21T13:29:18.771Z,16.50
2019-05-21T13:31:51.143Z,104.63
2019-05-21T13:34:22.691Z,178.00
2019-05-21T13:36:54.200Z,23.92
2019-05-21T13:39:25.856Z,17.65
2019-05-21T13:41:58.374Z,17.77
2019-05-21T13:44:30.229Z,18.35
2019-05-21T13:47:01.777Z,22.17
2019-05-21T13:49:33.133Z,14.65
2019-05-21T13:52:04.677Z,31.55
2019-05-21T13:54:36.346Z,10.65
2019-05-21T13:57:08.829Z,11.45
2019-05-21T13:59:40.478Z,10.82
2019-05-21T14:02:14.564Z,16.25
2019-05-21T14:04:46.479Z,18.60
2019-05-21T14:07:18.305Z,8.00
2019-05-21T14:10:12.142Z,13.50
2019-05-21T14:12:22.850Z,12.43
2019-05-21T14:14:55.105Z,10.23
2019-05-21T14:17:26.958Z,12.78
2019-05-21T14:19:58.529Z,12.30
2019-05-21T14:22:29.980Z,16.82
2019-05-21T14:25:01.428Z,21.10
2019-05-21T14:27:43.822Z,44.53
2019-05-21T14:30:11.804Z,17.57
2019-05-21T14:32:43.085Z,13.53
2019-05-21T14:35:15.629Z,8.58
2019-05-21T14:37:47.267Z,16.42
2019-05-21T14:40:31.223Z,14.07
2019-05-21T14:42:59.933Z,6.10
2019-05-21T14:45:28.957Z,22.65
2019-05-21T14:47:58.281Z,10.63
2019-05-21T14:50:29.765Z,15.13
2019-05-21T14:53:01.210Z,8.55
2019-05-21T14:55:32.863Z,9.90
2019-05-21T14:58:04.293Z,8.58
2019-05-21T15:00:37.305Z,10.80
2019-05-21T15:03:23.919Z,8.48
2019-05-21T15:05:41.917Z,16.17
2019-05-21T15:08:13.579Z,11.03
2019-05-21T15:10:49.005Z,13.50
2019-05-21T15:13:17.907Z,14.33
2019-05-21T15:15:49.266Z,12.98
2019-05-21T15:18:22.335Z,13.43
2019-05-21T15:20:55.400Z,13.48
2019-05-21T15:23:26.921Z,13.58
2019-05-21T15:25:58.467Z,5.83
2019-05-21T15:28:30.738Z,21.35
2019-05-21T15:31:02.109Z,11.53
2019-05-21T15:33:33.732Z,10.60
2019-05-21T15:36:05.080Z,10.23
2019-05-21T15:38:49.272Z,12.35
2019-05-21T15:41:12.319Z,18.77
2019-05-21T15:43:42.578Z,21.17
2019-05-21T15:46:13.852Z,14.98
2019-05-21T15:48:46.854Z,9.20
2019-05-21T15:51:18.163Z,11.78
2019-05-21T15:53:51.062Z,11.20
2019-05-21T15:56:22.205Z,10.13
2019-05-21T15:58:53.873Z,11.93
2019-05-21T16:01:25.461Z,11.08
2019-05-21T16:03:57.195Z,9.63
2019-05-21T16:06:28.529Z,13.65
2019-05-21T16:09:00.019Z,14.38
2019-05-21T16:11:32.984Z,13.95
2019-05-21T16:14:04.517Z,12.05
2019-05-21T16:16:35.533Z,13.18
2019-05-21T16:19:07.346Z,21.05
2019-05-21T16:21:38.969Z,23.47
2019-05-21T16:24:10.171Z,19.25
2019-05-21T16:26:41.740Z,9.18
2019-05-21T16:29:13.308Z,13.58
2019-05-21T16:31:44.775Z,20.15
2019-05-21T16:34:16.134Z,6.72
2019-05-21T16:36:49.386Z,10.10
2019-05-21T16:39:22.602Z,8.05
2019-05-21T16:41:54.259Z,14.68
2019-05-21T16:44:26.435Z,10.75
2019-05-21T16:46:57.773Z,7.15
2019-05-21T16:49:29.100Z,16.00
2019-05-21T16:52:00.599Z,9.00
2019-05-21T16:54:32.340Z,16.52
2019-05-21T16:57:04.089Z,15.95
2019-05-21T16:59:36.459Z,10.78
2019-05-21T17:02:10.042Z,14.55
2019-05-21T17:04:42.237Z,13.70
2019-05-21T17:07:14.097Z,13.95
2019-05-21T17:09:45.742Z,15.00
2019-05-21T17:12:18.433Z,12.23
2019-05-21T17:14:50.117Z,16.70
2019-05-21T17:17:21.439Z,17.77
2019-05-21T17:19:54.077Z,10.00
2019-05-21T17:22:25.662Z,14.93
2019-05-21T17:24:57.296Z,23.10
2019-05-21T17:27:30.354Z,14.98
2019-05-21T17:30:10.093Z,17.00
2019-05-21T17:32:41.903Z,11.70
2019-05-21T17:35:13.344Z,17.57
2019-05-21T17:37:44.826Z,15.88
2019-05-21T17:40:16.245Z,16.23
2019-05-21T17:42:47.809Z,20.05
2019-05-21T17:45:19.231Z,17.62
2019-05-21T17:47:51.802Z,20.95
2019-05-21T17:50:24.089Z,9.45
2019-05-21T17:52:55.450Z,11.40
2019-05-21T17:55:28.950Z,14.47
2019-05-21T17:58:01.847Z,19.45
2019-05-21T18:00:49.975Z,17.40
2019-05-21T18:03:21.430Z,20.82
2019-05-21T18:05:54.504Z,10.68
2019-05-21T18:08:27.017Z,10.13
2019-05-21T18:10:59.361Z,10.32
2019-05-21T18:13:31.307Z,12.37
2019-05-21T18:16:02.827Z,11.78
2019-05-21T18:18:34.116Z,15.83
2019-05-21T18:21:05.887Z,14.93
2019-05-21T18:23:37.329Z,10.23
2019-05-21T18:26:08.779Z,19.42
2019-05-21T18:28:40.439Z,14.47
2019-05-21T18:31:11.887Z,10.18
2019-05-21T18:33:43.335Z,16.20
2019-05-21T18:36:14.620Z,22.13
2019-05-21T18:38:45.919Z,15.18
2019-05-21T18:41:17.172Z,12.95
2019-05-21T18:43:50.383Z,16.52
2019-05-21T18:46:21.921Z,12.75
2019-05-21T18:48:53.126Z,26.95
2019-05-21T18:51:24.927Z,15.03
2019-05-21T18:53:56.657Z,18.12
2019-05-21T18:56:30.072Z,16.85
2019-05-21T18:59:01.641Z,12.47
2019-05-21T19:01:42.271Z,17.30
2019-05-21T19:04:13.740Z,22.13
2019-05-21T19:06:45.305Z,12.10
2019-05-21T19:09:16.967Z,18.85
2019-05-21T19:11:48.406Z,15.03
2019-05-21T19:14:21.383Z,17.92
2019-05-21T19:16:53.978Z,13.83
2019-05-21T19:19:27.382Z,14.25
2019-05-21T19:21:58.918Z,11.03
2019-05-21T19:24:30.276Z,13.28
2019-05-21T19:27:02.330Z,11.50
2019-05-21T19:29:33.681Z,13.20
2019-05-21T19:32:05.130Z,8.48
2019-05-21T19:34:36.787Z,11.25
2019-05-21T19:37:10.382Z,10.65
2019-05-21T19:39:42.300Z,9.70
2019-05-21T19:42:14.514Z,11.70
2019-05-21T19:44:49.151Z,12.43
2019-05-21T19:47:21.314Z,11.08
2019-05-21T19:49:52.869Z,15.98
2019-05-21T19:52:27.484Z,15.25
2019-05-21T19:54:58.780Z,16.65
2019-05-21T19:57:33.659Z,11.40
2019-05-21T20:00:07.628Z,17.87
2019-05-21T20:02:40.757Z,13.75
2019-05-21T20:05:12.206Z,12.30
2019-05-21T20:07:44.152Z,12.28
2019-05-21T20:10:26.307Z,14.80
2019-05-21T20:12:58.737Z,19.75
2019-05-21T20:15:30.099Z,13.10
2019-05-21T20:18:07.326Z,12.15
2019-05-21T20:20:35.135Z,21.90
2019-05-21T20:23:09.029Z,13.62
2019-05-21T20:25:55.457Z,18.80
2019-05-21T20:28:14.103Z,13.28
2019-05-21T20:30:46.381Z,10.90
2019-05-21T20:33:19.361Z,14.98
2019-05-21T20:35:52.243Z,12.28
2019-05-21T20:38:23.899Z,19.67
2019-05-21T20:40:55.459Z,12.88
2019-05-21T20:43:26.878Z,14.45
2019-05-21T20:45:58.647Z,14.68
2019-05-21T20:48:37.909Z,11.18
2019-05-21T20:51:09.239Z,15.15
2019-05-21T20:53:40.793Z,16.60
2019-05-21T20:56:11.920Z,17.00
2019-05-21T20:58:43.489Z,13.93
2019-05-21T21:01:15.039Z,11.80
2019-05-21T21:03:47.515Z,15.23
2019-05-21T21:06:34.349Z,11.97
2019-05-21T21:08:52.616Z,13.48
2019-05-21T21:11:25.765Z,13.10
2019-05-21T21:13:58.233Z,12.75
2019-05-21T21:16:29.989Z,14.28
2019-05-21T21:19:01.145Z,13.98
2019-05-21T21:21:32.662Z,9.25
2019-05-21T21:24:05.402Z,16.90
2019-05-21T21:26:36.924Z,8.35
2019-05-21T21:29:11.045Z,10.30
2019-05-21T21:31:42.788Z,14.43
2019-05-21T21:34:15.085Z,13.62
2019-05-21T21:36:46.612Z,15.28
2019-05-21T21:39:21.017Z,17.77
2019-05-21T21:41:52.889Z,12.53
2019-05-21T21:44:33.438Z,16.85
2019-05-21T21:46:57.328Z,13.40
2019-05-21T21:49:32.022Z,20.97
2019-05-21T21:52:04.221Z,17.77
2019-05-21T21:54:37.773Z,16.87
2019-05-21T21:57:11.046Z,18.35
2019-05-21T21:59:42.713Z,12.88
2019-05-21T22:02:29.070Z,18.87
2019-05-21T22:05:00.200Z,17.15
2019-05-21T22:07:32.608Z,16.02
2019-05-21T22:10:06.991Z,13.90
2019-05-21T22:12:38.053Z,21.35
2019-05-21T22:15:11.055Z,16.37
2019-05-21T22:17:42.842Z,18.45
2019-05-21T22:20:16.073Z,15.53
2019-05-21T22:22:47.854Z,19.10
2019-05-21T22:25:19.491Z,22.62
2019-05-21T22:27:51.049Z,23.10
2019-05-21T22:30:22.716Z,21.87
2019-05-21T22:32:53.947Z,21.23
2019-05-21T22:35:25.476Z,19.12
2019-05-21T22:37:56.751Z,23.02
2019-05-21T22:40:28.203Z,15.32
2019-05-21T22:43:01.489Z,14.78
2019-05-21T22:45:34.173Z,16.48
2019-05-21T22:48:05.522Z,17.80
2019-05-21T22:50:36.940Z,20.35
2019-05-21T22:53:08.419Z,23.92
2019-05-21T22:55:39.626Z,35.63
2019-05-21T22:58:12.776Z,39.27
2019-05-21T23:00:46.114Z,31.12
2019-05-21T23:03:18.700Z,29.37
2019-05-21T23:05:50.185Z,30.48
2019-05-21T23:08:22.689Z,35.92
2019-05-21T23:10:54.295Z,34.00
2019-05-21T23:13:25.764Z,24.05
2019-05-21T23:15:58.631Z,28.87
2019-05-21T23:18:34.807Z,35.38
2019-05-21T23:21:09.120Z,29.85
2019-05-21T23:23:41.801Z,24.60
2019-05-21T23:26:13.950Z,34.27
2019-05-21T23:28:45.516Z,27.77
2019-05-21T23:31:17.073Z,23.05
2019-05-21T23:33:49.736Z,43.63
2019-05-21T23:36:21.303Z,25.65
2019-05-21T23:38:52.742Z,31.30
2019-05-21T23:41:25.227Z,36.10
2019-05-21T23:43:58.215Z,26.33
2019-05-21T23:46:29.971Z,36.50
2019-05-21T23:49:01.319Z,38.70
2019-05-21T23:51:33.082Z,38.85
2019-05-21T23:54:06.683Z,47.65
2019-05-21T23:56:38.336Z,47.40
2019-05-21T23:59:09.788Z,42.20
